createdAt,value
2023-03-22T00:00:41.045Z,7.50
2023-03-22T00:03:11.951Z,7.60
2023-03-22T00:05:40.728Z,7.50
2023-03-22T00:08:11.068Z,7.40
2023-03-22T00:10:40.228Z,7.40
2023-03-22T00:13:17.123Z,7.40
2023-03-22T00:15:48.701Z,7.40
2023-03-22T00:18:17.034Z,7.40
2023-03-22T00:20:53.449Z,7.40
2023-03-22T00:23:22.368Z,7.40
2023-03-22T00:25:51.258Z,7.40
2023-03-22T00:28:21.419Z,7.40
2023-03-22T00:30:54.544Z,7.40
2023-03-22T00:33:23.151Z,7.40
2023-03-22T00:35:58.690Z,7.40
2023-03-22T00:38:42.564Z,7.40
2023-03-22T00:41:13.497Z,7.40
2023-03-22T00:43:43.870Z,7.40
2023-03-22T00:46:13.685Z,7.40
2023-03-22T00:48:44.024Z,7.40
2023-03-22T00:51:21.818Z,7.30
2023-03-22T00:53:54.780Z,7.40
2023-03-22T00:56:28.992Z,7.40
2023-03-22T00:58:58.794Z,7.40
2023-03-22T01:01:27.175Z,7.30
2023-03-22T01:03:55.690Z,7.30
2023-03-22T01:06:24.020Z,7.30
2023-03-22T01:08:55.143Z,7.30
2023-03-22T01:11:23.519Z,7.40
2023-03-22T01:13:52.934Z,7.30
2023-03-22T01:16:23.542Z,7.40
2023-03-22T01:18:52.109Z,7.40
2023-03-22T01:21:20.353Z,7.40
2023-03-22T01:23:49.355Z,7.40
2023-03-22T01:26:17.524Z,7.50
2023-03-22T01:28:45.886Z,7.50
2023-03-22T01:31:14.377Z,7.50
2023-03-22T01:33:44.674Z,7.50
2023-03-22T01:36:13.553Z,7.40
2023-03-22T01:38:42.133Z,7.40
2023-03-22T01:41:11.407Z,7.40
2023-03-22T01:43:39.723Z,7.40
2023-03-22T01:46:09.280Z,7.40
2023-03-22T01:48:42.215Z,7.40
2023-03-22T01:51:15.772Z,7.40
2023-03-22T01:53:48.733Z,7.40
2023-03-22T01:56:19.794Z,7.40
2023-03-22T01:58:49.770Z,7.40
2023-03-22T02:01:18.641Z,7.40
2023-03-22T02:03:51.026Z,7.40
2023-03-22T02:06:22.276Z,7.40
2023-03-22T02:08:53.071Z,7.40
2023-03-22T02:11:28.431Z,7.50
2023-03-22T02:14:17.442Z,7.50
2023-03-22T02:16:57.044Z,7.50
2023-03-22T02:20:00.081Z,7.50
2023-03-22T02:22:59.810Z,7.50
2023-03-22T02:25:58.173Z,7.50
2023-03-22T02:28:36.364Z,7.60
2023-03-22T02:31:42.936Z,7.60
2023-03-22T02:34:44.467Z,7.50
2023-03-22T02:37:39.945Z,7.60
2023-03-22T02:40:16.331Z,7.50
2023-03-22T02:42:54.853Z,7.60
2023-03-22T02:45:30.824Z,7.50
2023-03-22T02:48:07.070Z,7.50
2023-03-22T02:50:42.671Z,7.50
2023-03-22T02:53:17.380Z,7.50
2023-03-22T02:55:52.394Z,7.50
2023-03-22T02:58:25.703Z,7.40
2023-03-22T03:00:59.410Z,7.40
2023-03-22T03:03:30.546Z,7.40
2023-03-22T03:06:03.913Z,7.40
2023-03-22T03:08:32.572Z,7.30
2023-03-22T03:11:02.446Z,7.40
2023-03-22T03:13:31.690Z,7.30
2023-03-22T03:16:02.122Z,7.40
2023-03-22T03:18:44.788Z,7.30
2023-03-22T03:21:24.966Z,7.30
2023-03-22T03:24:01.527Z,7.40
2023-03-22T03:26:40.752Z,7.40
2023-03-22T03:29:16.653Z,7.40
2023-03-22T03:31:51.829Z,7.30
2023-03-22T03:34:26.364Z,7.30
2023-03-22T03:36:58.199Z,7.30
2023-03-22T03:39:34.190Z,7.30
2023-03-22T03:42:06.088Z,7.30
2023-03-22T03:44:37.150Z,7.30
2023-03-22T03:47:07.221Z,7.30
2023-03-22T03:49:36.261Z,7.30
2023-03-22T03:52:06.915Z,7.30
2023-03-22T03:54:35.498Z,7.30
2023-03-22T03:57:05.580Z,7.30
2023-03-22T03:59:34.032Z,7.30
2023-03-22T04:02:02.461Z,7.20
2023-03-22T04:04:31.338Z,7.20
2023-03-22T04:07:01.425Z,7.20
2023-03-22T04:09:31.690Z,7.20
2023-03-22T04:12:00.137Z,7.10
2023-03-22T04:14:30.102Z,7.10
2023-03-22T04:16:58.369Z,7.00
2023-03-22T04:19:27.302Z,7.00
2023-03-22T04:21:55.800Z,7.10
2023-03-22T04:24:24.034Z,7.10
2023-03-22T04:26:53.444Z,7.00
2023-03-22T04:29:22.243Z,7.00
2023-03-22T04:31:53.116Z,7.00
2023-03-22T04:34:21.779Z,7.00
2023-03-22T04:36:50.721Z,7.00
2023-03-22T04:39:19.370Z,7.00
2023-03-22T04:41:47.916Z,7.00
2023-03-22T04:44:16.343Z,7.00
2023-03-22T04:46:47.017Z,7.00
2023-03-22T04:49:17.234Z,7.00
2023-03-22T04:51:46.183Z,7.00
2023-03-22T04:54:14.809Z,7.00
2023-03-22T04:56:43.421Z,7.00
2023-03-22T04:59:11.762Z,7.00
2023-03-22T05:01:40.846Z,7.00
2023-03-22T05:04:09.154Z,6.90
2023-03-22T05:06:38.705Z,6.90
2023-03-22T05:09:07.178Z,6.80
2023-03-22T05:11:36.330Z,6.80
2023-03-22T05:14:05.802Z,6.70
2023-03-22T05:16:34.345Z,6.70
2023-03-22T05:19:03.039Z,6.70
2023-03-22T05:21:37.126Z,6.60
2023-03-22T05:24:08.228Z,6.60
2023-03-22T05:26:38.256Z,6.70
2023-03-22T05:29:06.983Z,6.70
2023-03-22T05:31:35.645Z,6.70
2023-03-22T05:34:08.170Z,6.80
2023-03-22T05:36:37.720Z,6.80
2023-03-22T05:39:08.253Z,6.80
2023-03-22T05:41:37.059Z,6.90
2023-03-22T05:44:05.963Z,6.90
2023-03-22T05:46:34.217Z,6.90
2023-03-22T05:49:02.810Z,7.00
2023-03-22T05:51:31.015Z,7.00
2023-03-22T05:54:07.676Z,7.00
2023-03-22T05:56:35.934Z,7.10
2023-03-22T05:59:04.993Z,7.10
2023-03-22T06:01:34.331Z,7.20
2023-03-22T06:04:02.807Z,7.20
2023-03-22T06:06:30.964Z,7.20
2023-03-22T06:09:10.606Z,7.10
2023-03-22T06:11:48.691Z,7.10
2023-03-22T06:14:17.024Z,7.20
2023-03-22T06:16:45.546Z,7.20
2023-03-22T06:19:13.805Z,7.30
2023-03-22T06:21:43.860Z,7.40
2023-03-22T06:24:12.339Z,7.40
2023-03-22T06:26:40.959Z,7.40
2023-03-22T06:29:10.685Z,7.40
2023-03-22T06:31:39.637Z,7.40
2023-03-22T06:34:07.991Z,7.40
2023-03-22T06:36:36.257Z,7.40
2023-03-22T06:39:05.505Z,7.40
2023-03-22T06:41:34.795Z,7.70
2023-03-22T06:44:03.762Z,7.90
2023-03-22T06:46:33.405Z,8.00
2023-03-22T06:49:01.814Z,8.00
2023-03-22T06:51:30.276Z,7.90
2023-03-22T06:53:58.561Z,7.90
2023-03-22T06:56:27.288Z,7.80
2023-03-22T06:58:57.978Z,7.70
2023-03-22T07:01:27.237Z,7.70
2023-03-22T07:03:57.326Z,7.80
2023-03-22T07:06:26.146Z,7.80
2023-03-22T07:08:54.689Z,8.00
2023-03-22T07:11:23.026Z,8.10
2023-03-22T07:13:51.314Z,8.40
2023-03-22T07:16:20.174Z,8.60
2023-03-22T07:18:48.811Z,8.90
2023-03-22T07:21:18.380Z,9.00
2023-03-22T07:23:47.125Z,9.30
2023-03-22T07:26:16.164Z,9.30
2023-03-22T07:28:44.745Z,9.30
2023-03-22T07:31:14.461Z,9.30
2023-03-22T07:33:43.179Z,9.30
2023-03-22T07:36:12.846Z,9.10
2023-03-22T07:38:42.680Z,9.20
2023-03-22T07:41:10.958Z,9.30
2023-03-22T07:43:53.151Z,9.30
2023-03-22T07:46:23.671Z,9.40
2023-03-22T07:48:52.035Z,9.50
2023-03-22T07:51:20.739Z,9.70
2023-03-22T07:53:50.512Z,9.70
2023-03-22T07:56:18.686Z,9.70
2023-03-22T07:58:47.748Z,9.70
2023-03-22T08:01:16.012Z,9.80
2023-03-22T08:03:44.551Z,9.80
2023-03-22T08:06:12.760Z,9.80
2023-03-22T08:08:44.300Z,9.80
2023-03-22T08:11:14.202Z,9.90
2023-03-22T08:13:42.823Z,9.80
2023-03-22T08:16:11.877Z,9.70
2023-03-22T08:18:40.656Z,9.50
2023-03-22T08:21:09.851Z,9.50
2023-03-22T08:23:42.024Z,9.50
2023-03-22T08:26:11.160Z,9.50
2023-03-22T08:28:40.897Z,9.50
2023-03-22T08:31:14.695Z,9.40
2023-03-22T08:33:44.457Z,9.30
2023-03-22T08:36:15.326Z,9.30
2023-03-22T08:38:44.914Z,9.20
2023-03-22T08:41:13.460Z,9.20
2023-03-22T08:43:43.750Z,9.30
2023-03-22T08:46:12.337Z,9.30
2023-03-22T08:48:42.103Z,9.20
2023-03-22T08:51:10.991Z,9.00
2023-03-22T08:53:39.391Z,9.00
2023-03-22T08:56:09.719Z,9.00
2023-03-22T08:58:38.402Z,8.90
2023-03-22T09:01:12.171Z,9.00
2023-03-22T09:03:59.848Z,8.90
2023-03-22T09:06:31.258Z,8.90
2023-03-22T09:09:00.736Z,8.90
2023-03-22T09:11:29.806Z,9.00
2023-03-22T09:13:58.115Z,9.10
2023-03-22T09:16:28.076Z,9.30
2023-03-22T09:18:56.432Z,9.50
2023-03-22T09:21:24.875Z,9.60
2023-03-22T09:23:56.190Z,9.70
2023-03-22T09:26:25.892Z,9.70
2023-03-22T09:28:54.578Z,9.90
2023-03-22T09:31:23.315Z,9.90
2023-03-22T09:33:53.469Z,10.00
2023-03-22T09:36:21.796Z,10.00
2023-03-22T09:38:50.409Z,9.90
2023-03-22T09:41:23.023Z,10.00
2023-03-22T09:43:54.693Z,10.00
2023-03-22T09:46:31.127Z,9.90
2023-03-22T09:49:06.483Z,9.90
2023-03-22T09:51:40.825Z,10.10
2023-03-22T09:54:15.624Z,10.20
2023-03-22T09:56:46.853Z,10.40
2023-03-22T09:59:19.056Z,10.50
2023-03-22T10:01:52.650Z,10.50
2023-03-22T10:04:48.516Z,10.60
2023-03-22T10:07:28.191Z,10.60
2023-03-22T10:10:06.669Z,10.60
2023-03-22T10:12:38.953Z,10.60
2023-03-22T10:15:12.172Z,10.60
2023-03-22T10:17:42.901Z,10.60
2023-03-22T10:20:26.065Z,10.70
2023-03-22T10:22:57.166Z,10.80
2023-03-22T10:25:34.125Z,10.90
2023-03-22T10:28:03.695Z,11.00
2023-03-22T10:30:39.308Z,11.00
2023-03-22T10:33:15.111Z,10.90
2023-03-22T10:35:45.033Z,10.80
2023-03-22T10:38:22.768Z,10.90
2023-03-22T10:40:52.636Z,10.70
2023-03-22T10:43:28.800Z,10.80
2023-03-22T10:45:58.148Z,10.80
2023-03-22T10:48:33.056Z,11.20
2023-03-22T10:51:04.393Z,11.30
2023-03-22T10:53:38.882Z,11.40
2023-03-22T10:56:12.392Z,11.40
2023-03-22T10:58:41.116Z,11.30
2023-03-22T11:01:11.636Z,11.30
2023-03-22T11:03:42.787Z,11.40
2023-03-22T11:06:15.638Z,11.40
2023-03-22T11:08:47.169Z,11.50
2023-03-22T11:11:23.517Z,11.50
2023-03-22T11:14:00.024Z,11.60
2023-03-22T11:16:29.019Z,11.80
2023-03-22T11:18:59.230Z,11.80
2023-03-22T11:21:33.388Z,11.90
2023-03-22T11:24:05.840Z,12.00
2023-03-22T11:26:39.175Z,12.10
2023-03-22T11:29:15.624Z,12.10
2023-03-22T11:31:57.474Z,12.00
2023-03-22T11:34:28.483Z,12.00
2023-03-22T11:37:02.157Z,12.00
2023-03-22T11:39:31.377Z,11.90
2023-03-22T11:42:03.906Z,11.80
2023-03-22T11:44:35.940Z,11.90
2023-03-22T11:47:08.990Z,11.90
2023-03-22T11:49:46.112Z,12.00
2023-03-22T11:52:19.196Z,12.00
2023-03-22T11:54:49.053Z,12.00
2023-03-22T11:57:21.619Z,12.00
2023-03-22T11:59:56.611Z,12.10
2023-03-22T12:02:29.423Z,12.30
2023-03-22T12:05:02.602Z,12.50
2023-03-22T12:07:35.543Z,12.60
2023-03-22T12:10:08.441Z,12.80
2023-03-22T12:12:41.446Z,12.90
2023-03-22T12:15:16.596Z,12.90
2023-03-22T12:17:50.272Z,12.90
2023-03-22T12:20:31.259Z,12.70
2023-03-22T12:23:03.831Z,12.60
2023-03-22T12:25:36.780Z,12.60
2023-03-22T12:28:08.275Z,12.80
2023-03-22T12:30:43.561Z,12.90
2023-03-22T12:33:17.507Z,12.90
2023-03-22T12:35:48.317Z,12.60
2023-03-22T12:38:34.123Z,12.50
2023-03-22T12:41:06.111Z,12.80
2023-03-22T12:43:46.706Z,13.10
2023-03-22T12:46:20.945Z,13.40
2023-03-22T12:48:53.848Z,13.50
2023-03-22T12:51:22.856Z,13.60
2023-03-22T12:53:57.444Z,13.40
2023-03-22T12:56:30.694Z,13.20
2023-03-22T12:59:03.512Z,13.30
2023-03-22T13:01:37.486Z,13.30
2023-03-22T13:04:34.205Z,13.30
2023-03-22T13:07:34.270Z,13.30
2023-03-22T13:10:57.525Z,13.30
2023-03-22T13:13:55.926Z,13.10
2023-03-22T13:16:43.046Z,13.10
2023-03-22T13:19:36.204Z,13.10
2023-03-22T13:22:22.215Z,13.10
2023-03-22T13:25:07.181Z,13.40
2023-03-22T13:27:41.847Z,13.50
2023-03-22T13:30:18.294Z,13.40
2023-03-22T13:32:54.582Z,13.50
2023-03-22T13:35:27.990Z,13.40
2023-03-22T13:38:03.255Z,13.40
2023-03-22T13:40:37.856Z,13.30
2023-03-22T13:43:23.069Z,13.30
2023-03-22T13:46:15.610Z,13.40
2023-03-22T13:48:53.882Z,13.40
2023-03-22T13:51:30.319Z,13.30
2023-03-22T13:54:04.684Z,13.20
2023-03-22T13:56:52.206Z,13.10
2023-03-22T13:59:25.300Z,13.10
2023-03-22T14:01:57.429Z,13.00
2023-03-22T14:04:35.130Z,13.10
2023-03-22T14:07:11.103Z,13.00
2023-03-22T14:09:45.215Z,12.90
2023-03-22T14:12:21.230Z,13.00
2023-03-22T14:14:53.803Z,13.00
2023-03-22T14:17:32.672Z,13.00
2023-03-22T14:20:10.439Z,13.00
